Time;durP1;ratioP1;P1;durP2;ratioP2;P2;SDS_P1;SDS_P2;PMS_P1;PMS_P2;Temp;Humidity;BMP_temperature;BMP_pressure;BME280_temperature;BME280_humidity;BME280_pressure;Samples;Min_cycle;Max_cycle;Signal;HPM_P1;HPM_P2
2021/12/18 00:02:36;;;;;;;10.77;4.03;;;;;;;1.92;79.90;101074.91;4279184;33;35462;-77
2021/12/18 00:05:22;;;;;;;8.75;3.75;;;;;;;2.07;78.88;101080.00;4270003;33;33712;-78
2021/12/18 00:08:08;;;;;;;11.57;4.53;;;;;;;1.80;80.50;101072.06;4269515;33;34330;-78
2021/12/18 00:10:55;;;;;;;11.98;3.75;;;;;;;2.01;79.79;101078.16;4270416;33;35824;-78
2021/12/18 00:13:42;;;;;;;9.88;3.95;;;;;;;1.85;80.07;101084.94;4269833;33;34203;-78
2021/12/18 00:16:28;;;;;;;10.30;4.28;;;;;;;2.01;78.88;101084.41;4278674;33;33825;-78
2021/12/18 00:19:17;;;;;;;8.98;4.10;;;;;;;2.42;77.37;101084.91;4278399;33;35173;-78
2021/12/18 00:22:05;;;;;;;7.65;3.62;;;;;;;1.69;80.62;101088.97;4278684;33;36009;-78
2021/12/18 00:24:51;;;;;;;9.30;4.30;;;;;;;1.91;80.20;101094.87;4278410;33;34669;-76
2021/12/18 00:27:39;;;;;;;7.75;3.65;;;;;;;1.55;81.63;101096.31;4270306;33;34177;-75
2021/12/18 00:30:26;;;;;;;8.80;3.80;;;;;;;1.45;82.46;101097.81;4278982;33;33455;-77
2021/12/18 00:33:12;;;;;;;11.30;4.62;;;;;;;1.54;81.99;101096.56;4278292;33;34899;-79
2021/12/18 00:35:59;;;;;;;10.35;4.07;;;;;;;1.34;83.15;101094.78;4278792;33;34611;-78
2021/12/18 00:38:45;;;;;;;8.60;3.90;;;;;;;1.50;82.71;101103.41;4269430;33;34749;-77
2021/12/18 00:44:21;;;;;;;10.90;4.37;;;;;;;1.46;82.82;101104.91;4269728;33;36117;-78
2021/12/18 00:47:09;;;;;;;8.98;4.07;;;;;;;1.65;81.94;101106.69;4269246;33;35091;-76
2021/12/18 00:49:56;;;;;;;9.30;3.95;;;;;;;1.18;84.17;101103.34;4277848;33;34233;-78
2021/12/18 00:52:50;;;;;;;12.18;5.03;;;;;;;1.61;82.15;101102.75;4269558;33;34296;-77
2021/12/18 00:55:37;;;;;;;10.45;4.82;;;;;;;1.30;83.74;101095.41;4277959;33;34902;-74
2021/12/18 00:58:23;;;;;;;7.07;3.75;;;;;;;1.30;83.99;101100.81;4269453;33;34665;-75
2021/12/18 01:01:11;;;;;;;10.45;4.57;;;;;;;1.31;84.21;101103.31;4271317;33;33926;-76
2021/12/18 01:04:00;;;;;;;14.02;5.30;;;;;;;1.27;84.55;101101.22;4271666;33;34272;-77
2021/12/18 01:06:48;;;;;;;10.05;4.45;;;;;;;1.41;84.16;101099.31;4271384;33;35062;-77
2021/12/18 01:10:02;;;;;;;13.27;4.25;;;;;;;1.66;83.38;101107.50;4271922;33;34119;-75
2021/12/18 01:12:51;;;;;;;9.98;4.60;;;;;;;1.55;83.80;101106.31;4278032;33;33789;-75
2021/12/18 01:15:44;;;;;;;10.70;5.37;;;;;;;1.68;83.33;101114.34;4280712;33;34541;-76
2021/12/18 01:24:40;;;;;;;13.68;6.00;;;;;;;1.33;85.10;101109.28;4270389;33;33705;-77
2021/12/18 01:27:27;;;;;;;10.05;4.25;;;;;;;1.23;85.66;101114.34;4270806;33;35685;-78
2021/12/18 01:30:14;;;;;;;10.63;4.80;;;;;;;1.48;85.37;101116.31;4279827;33;37615;-77
2021/12/18 01:33:00;;;;;;;11.18;4.62;;;;;;;1.55;85.19;101122.50;4280054;33;35369;-77
2021/12/18 01:35:48;;;;;;;11.05;5.22;;;;;;;1.44;85.84;101136.69;4279924;33;33937;-77
2021/12/18 01:38:34;;;;;;;12.60;5.03;;;;;;;1.62;85.18;101139.50;4280177;33;35012;-77
2021/12/18 01:41:20;;;;;;;11.40;5.18;;;;;;;1.43;85.76;101140.44;4279024;33;34967;-76
2021/12/18 01:44:47;;;;;;;10.73;4.22;;;;;;;1.53;85.79;101140.81;4280262;33;33599;-77
2021/12/18 01:53:20;;;;;;;9.95;4.57;;;;;;;1.55;85.42;101142.25;4272016;33;35022;-76
2021/12/18 01:56:06;;;;;;;11.12;4.90;;;;;;;1.61;85.62;101143.25;4271116;33;35508;-78
2021/12/18 01:58:54;;;;;;;9.95;5.03;;;;;;;1.63;85.28;101146.59;4279553;33;35127;-77
2021/12/18 02:01:41;;;;;;;12.60;4.25;;;;;;;1.50;85.40;101152.03;4280115;33;35635;-78
2021/12/18 02:04:27;;;;;;;9.93;4.50;;;;;;;1.50;85.43;101154.75;4271165;33;35628;-78
2021/12/18 02:07:14;;;;;;;10.23;4.95;;;;;;;1.73;84.57;101140.72;4270600;33;35406;-78
2021/12/18 02:10:05;;;;;;;11.70;4.50;;;;;;;1.82;83.69;101141.28;4270550;33;34194;-78
2021/12/18 02:13:19;;;;;;;11.65;4.75;;;;;;;1.73;83.90;101148.81;4278918;33;34654;-79
2021/12/18 02:22:17;;;;;;;13.07;4.68;;;;;;;1.96;82.59;101161.78;4271326;33;34281;-78
2021/12/18 02:25:03;;;;;;;9.63;4.55;;;;;;;1.99;82.64;101172.16;4271359;33;35524;-78
2021/12/18 02:27:52;;;;;;;13.45;4.95;;;;;;;1.78;83.37;101160.62;4271139;33;35003;-78
2021/12/18 02:30:38;;;;;;;12.07;4.70;;;;;;;1.74;83.52;101164.00;4271117;33;34606;-80
2021/12/18 02:33:26;;;;;;;13.15;4.90;;;;;;;1.77;82.73;101169.81;4279696;33;33027;-78
2021/12/18 02:36:22;;;;;;;10.55;4.43;;;;;;;1.64;83.95;101159.03;4279657;33;34513;-76
2021/12/18 02:39:22;;;;;;;9.80;4.37;;;;;;;1.72;83.70;101166.91;4279948;33;35025;-76
2021/12/18 02:42:11;;;;;;;10.52;4.53;;;;;;;1.55;83.98;101163.88;4270108;33;34199;-78
2021/12/18 02:44:57;;;;;;;14.52;4.78;;;;;;;1.52;84.49;101179.69;4279686;33;33661;-78
2021/12/18 02:47:47;;;;;;;9.38;4.70;;;;;;;1.71;83.38;101181.47;4270383;33;33406;-78
2021/12/18 02:50:38;;;;;;;16.12;5.03;;;;;;;1.83;83.50;101202.44;4270772;33;34823;-77
2021/12/18 02:53:26;;;;;;;9.43;3.93;;;;;;;1.68;83.32;101195.41;4270773;33;34495;-77
2021/12/18 02:56:14;;;;;;;11.35;5.70;;;;;;;1.76;83.56;101195.16;4279549;33;34086;-78
2021/12/18 02:59:05;;;;;;;12.85;5.00;;;;;;;1.84;83.11;101185.97;4279157;33;35498;-77
2021/12/18 03:01:51;;;;;;;12.68;4.53;;;;;;;1.52;84.52;101193.19;4278918;33;36117;-77
2021/12/18 03:04:40;;;;;;;12.95;5.07;;;;;;;1.84;82.57;101177.88;4278821;33;34652;-78
2021/12/18 03:07:28;;;;;;;11.07;4.78;;;;;;;1.84;82.92;101185.16;4279044;33;35080;-77
2021/12/18 03:25:22;;;;;;;13.43;4.90;;;;;;;1.62;83.33;101204.34;4270527;33;35610;-77
2021/12/18 03:28:10;;;;;;;13.57;5.15;;;;;;;1.77;82.88;101212.22;4270048;33;34865;-79
2021/12/18 03:31:00;;;;;;;8.98;4.43;;;;;;;1.68;82.90;101218.88;4270062;33;34701;-78
2021/12/18 03:33:47;;;;;;;12.95;5.05;;;;;;;1.56;83.18;101216.00;4279360;33;36179;-76
2021/12/18 03:36:33;;;;;;;11.73;4.80;;;;;;;1.51;83.28;101221.25;4270791;33;35049;-77
2021/12/18 03:39:19;;;;;;;10.15;4.82;;;;;;;1.26;84.56;101219.22;4271076;33;33294;-77
2021/12/18 03:42:09;;;;;;;13.05;4.85;;;;;;;1.56;83.04;101216.00;4277675;33;34220;-77
2021/12/18 03:44:55;;;;;;;12.20;5.28;;;;;;;1.73;82.52;101227.19;4270607;33;35518;-77
2021/12/18 03:47:42;;;;;;;11.15;4.75;;;;;;;1.24;84.14;101226.69;4270144;33;36710;-78
2021/12/18 03:50:28;;;;;;;10.77;4.60;;;;;;;1.32;84.03;101221.06;4279540;33;34611;-78
2021/12/18 03:53:14;;;;;;;12.07;5.30;;;;;;;1.41;84.20;101213.56;4269610;33;34664;-78
2021/12/18 03:56:02;;;;;;;11.02;5.47;;;;;;;1.27;84.48;101217.34;4270327;33;34632;-78
2021/12/18 03:58:48;;;;;;;11.95;5.40;;;;;;;1.27;84.12;101214.66;4270982;33;34519;-77
2021/12/18 04:01:37;;;;;;;10.38;4.97;;;;;;;1.09;85.10;101226.09;4270489;33;34124;-77
2021/12/18 04:04:23;;;;;;;11.07;4.57;;;;;;;1.17;84.85;101234.00;4270343;33;35101;-77
2021/12/18 04:07:10;;;;;;;13.55;5.18;;;;;;;1.30;84.54;101238.53;4279487;33;34786;-77
2021/12/18 04:09:56;;;;;;;12.98;4.90;;;;;;;1.51;83.56;101235.59;4270190;33;35080;-77
2021/12/18 04:12:43;;;;;;;11.48;4.40;;;;;;;1.34;84.25;101229.81;4270188;33;34658;-78
2021/12/18 04:15:30;;;;;;;12.60;4.72;;;;;;;1.28;84.33;101213.59;4278792;33;34188;-77
2021/12/18 04:18:16;;;;;;;12.68;5.55;;;;;;;1.28;84.67;101206.34;4278993;33;34572;-78
2021/12/18 04:21:02;;;;;;;12.57;5.43;;;;;;;1.19;84.81;101213.00;4268900;33;36056;-78
2021/12/18 04:23:49;;;;;;;11.80;5.07;;;;;;;1.07;85.56;101209.28;4269451;33;34359;-78
2021/12/18 04:26:35;;;;;;;12.07;4.68;;;;;;;1.01;85.40;101212.81;4278894;33;35063;-77
2021/12/18 04:29:22;;;;;;;12.40;5.12;;;;;;;1.19;84.62;101226.50;4271738;33;34247;-77
2021/12/18 04:32:08;;;;;;;12.43;5.60;;;;;;;1.00;85.60;101221.97;4270300;33;35700;-77
2021/12/18 04:34:54;;;;;;;12.27;4.60;;;;;;;1.04;85.13;101228.59;4281062;33;34399;-77
2021/12/18 04:37:41;;;;;;;11.60;4.68;;;;;;;0.94;85.64;101230.88;4271328;33;33892;-77
2021/12/18 04:40:27;;;;;;;10.93;4.47;;;;;;;1.21;84.52;101235.22;4269801;33;34593;-77
2021/12/18 04:43:14;;;;;;;11.35;4.95;;;;;;;1.18;84.20;101232.94;4270920;33;34501;-77
2021/12/18 04:46:00;;;;;;;9.98;4.87;;;;;;;1.29;83.61;101240.41;4270952;33;34618;-78
2021/12/18 04:48:46;;;;;;;9.13;4.25;;;;;;;0.99;85.01;101242.72;4271160;33;34137;-78
2021/12/18 04:51:32;;;;;;;10.85;5.00;;;;;;;1.38;83.54;101246.41;4271525;33;34191;-78
2021/12/18 04:54:18;;;;;;;13.38;4.87;;;;;;;1.27;83.25;101257.84;4271035;33;34603;-78
2021/12/18 04:57:04;;;;;;;11.85;5.40;;;;;;;0.96;85.07;101270.13;4280327;33;34329;-78
2021/12/18 04:59:51;;;;;;;13.23;5.03;;;;;;;0.94;84.91;101266.81;4271195;33;33958;-78
2021/12/18 05:02:41;;;;;;;12.52;4.90;;;;;;;0.88;85.04;101275.72;4271403;33;34290;-78
2021/12/18 05:05:27;;;;;;;15.20;5.15;;;;;;;1.24;83.85;101275.28;4279811;33;35056;-77
2021/12/18 05:08:14;;;;;;;12.98;5.32;;;;;;;0.87;85.00;101282.16;4272038;33;34574;-78
2021/12/18 05:11:00;;;;;;;12.82;5.85;;;;;;;1.18;84.18;101291.50;4270706;33;34177;-78
2021/12/18 05:13:48;;;;;;;13.43;4.65;;;;;;;0.89;84.52;101296.28;4271414;33;34698;-78
2021/12/18 05:16:36;;;;;;;10.55;5.00;;;;;;;0.88;84.60;101303.56;4271454;33;35225;-78
2021/12/18 05:19:22;;;;;;;12.27;4.97;;;;;;;1.11;83.52;101311.25;4270066;33;34134;-77
2021/12/18 05:22:08;;;;;;;13.02;5.15;;;;;;;0.92;84.28;101313.94;4271690;33;33848;-77
2021/12/18 05:24:54;;;;;;;12.05;4.72;;;;;;;1.31;82.84;101316.66;4272225;33;34641;-78
2021/12/18 05:27:41;;;;;;;10.82;4.93;;;;;;;0.94;83.57;101319.94;4271290;33;35070;-78
2021/12/18 05:30:27;;;;;;;10.50;4.60;;;;;;;0.97;83.74;101319.53;4279831;33;36041;-78
2021/12/18 05:33:13;;;;;;;10.68;4.80;;;;;;;1.35;81.70;101322.44;4269642;33;35043;-78
2021/12/18 05:36:00;;;;;;;12.73;4.75;;;;;;;1.22;82.22;101320.56;4270818;33;34651;-78
2021/12/18 05:38:46;;;;;;;13.10;4.97;;;;;;;1.11;82.62;101321.19;4270868;33;35004;-78
2021/12/18 05:41:33;;;;;;;12.10;4.57;;;;;;;1.22;82.49;101317.88;4270215;33;35456;-77
2021/12/18 05:44:22;;;;;;;9.32;4.87;;;;;;;0.73;84.05;101321.78;4278670;33;34522;-78
2021/12/18 05:47:07;;;;;;;15.45;4.87;;;;;;;0.50;85.66;101319.44;4271157;33;35592;-78
2021/12/18 05:49:54;;;;;;;13.55;5.22;;;;;;;0.42;86.71;101338.50;4278616;33;36665;-78
2021/12/18 05:52:40;;;;;;;12.07;5.35;;;;;;;0.97;84.59;101330.31;4279570;33;34600;-78
2021/12/18 05:55:28;;;;;;;11.32;5.25;;;;;;;1.45;81.21;101336.38;4279607;33;34201;-78
2021/12/18 05:58:14;;;;;;;15.43;5.10;;;;;;;1.30;81.05;101336.56;4277867;33;34664;-78
2021/12/18 06:01:05;;;;;;;16.35;5.30;;;;;;;0.29;85.61;101344.69;4270651;33;34944;-78
2021/12/18 06:03:51;;;;;;;18.30;5.20;;;;;;;0.42;85.53;101341.22;4278662;33;35240;-77
2021/12/18 06:06:38;;;;;;;13.68;5.45;;;;;;;-0.12;88.43;101344.69;4270320;33;35169;-78
2021/12/18 06:09:24;;;;;;;13.45;5.70;;;;;;;0.15;88.20;101348.38;4269476;33;34262;-78
2021/12/18 06:12:10;;;;;;;12.52;5.85;;;;;;;0.20;87.70;101335.97;4270584;33;35038;-77
2021/12/18 06:14:57;;;;;;;13.18;5.15;;;;;;;-0.03;88.86;101330.88;4270984;33;34222;-77
2021/12/18 06:17:46;;;;;;;13.32;5.30;;;;;;;0.06;88.17;101338.75;4278320;33;34112;-77
2021/12/18 06:20:33;;;;;;;12.52;5.78;;;;;;;0.13;87.76;101342.34;4270597;33;35786;-76
2021/12/18 06:23:18;;;;;;;12.98;5.53;;;;;;;0.14;87.66;101344.84;4270772;33;36043;-76
2021/12/18 06:26:05;;;;;;;11.52;5.35;;;;;;;0.52;85.91;101346.22;4279792;33;34620;-77
2021/12/18 06:28:51;;;;;;;13.57;5.30;;;;;;;0.48;85.73;101353.06;4279243;33;34022;-77
2021/12/18 06:31:53;;;;;;;12.82;5.18;;;;;;;0.63;84.53;101356.44;4270544;33;34840;-76
2021/12/18 06:34:39;;;;;;;9.13;4.68;;;;;;;0.38;85.97;101348.87;4279683;33;34459;-77
2021/12/18 06:37:25;;;;;;;14.77;4.87;;;;;;;0.47;85.42;101344.12;4269807;33;35634;-77
2021/12/18 06:40:12;;;;;;;10.80;4.82;;;;;;;0.38;85.62;101348.87;4270975;33;33613;-76
2021/12/18 06:42:58;;;;;;;14.20;5.43;;;;;;;0.46;85.50;101347.88;4270576;33;34264;-77
2021/12/18 06:45:45;;;;;;;10.82;4.60;;;;;;;0.45;85.39;101352.41;4271121;33;35036;-77
2021/12/18 06:48:31;;;;;;;13.50;4.30;;;;;;;0.53;84.56;101364.06;4277170;33;34507;-78
2021/12/18 06:51:18;;;;;;;11.93;4.40;;;;;;;0.92;83.63;101376.00;4279407;33;33693;-77
2021/12/18 06:54:05;;;;;;;10.68;4.37;;;;;;;0.53;84.45;101382.94;4269089;33;34569;-76
2021/12/18 06:56:54;;;;;;;9.43;4.87;;;;;;;0.75;84.37;101383.66;4269080;33;35032;-77
2021/12/18 06:59:41;;;;;;;11.98;5.15;;;;;;;0.81;83.69;101372.87;4280081;33;34624;-77
2021/12/18 07:02:27;;;;;;;16.33;4.82;;;;;;;0.38;85.35;101377.72;4270591;33;35087;-77
2021/12/18 07:05:14;;;;;;;11.77;5.43;;;;;;;0.93;84.13;101373.09;4270254;33;33573;-77
2021/12/18 07:08:03;;;;;;;12.80;5.25;;;;;;;0.78;83.49;101372.44;4270106;33;35916;-77
2021/12/18 07:10:49;;;;;;;10.90;4.87;;;;;;;0.62;84.70;101382.56;4278907;33;35498;-76
2021/12/18 07:13:36;;;;;;;12.70;5.28;;;;;;;0.88;84.04;101370.16;4269568;33;34254;-76
2021/12/18 07:16:22;;;;;;;9.25;4.30;;;;;;;0.42;85.80;101371.69;4279709;33;34232;-76
2021/12/18 07:19:09;;;;;;;10.57;4.70;;;;;;;0.49;85.80;101374.44;4270528;33;33704;-76
2021/12/18 07:21:55;;;;;;;12.32;5.32;;;;;;;0.38;86.71;101370.44;4277867;33;34643;-75
2021/12/18 07:24:41;;;;;;;11.70;5.25;;;;;;;0.50;85.99;101372.56;4279370;33;34101;-76
2021/12/18 07:27:27;;;;;;;12.07;4.80;;;;;;;0.52;nan;101375.91;4279927;33;33452;-76
2021/12/18 07:30:17;;;;;;;11.30;5.18;;;;;;;0.49;86.68;101371.75;4279145;33;35162;-76
2021/12/18 07:33:10;;;;;;;10.75;4.70;;;;;;;0.51;86.69;101380.44;4269782;33;34651;-77
2021/12/18 07:35:59;;;;;;;17.27;5.65;;;;;;;0.60;86.57;101368.47;4270459;33;34339;-77
2021/12/18 07:38:46;;;;;;;13.77;6.10;;;;;;;0.49;86.98;101382.53;4269166;33;33470;-77
2021/12/18 07:41:32;;;;;;;12.82;5.68;;;;;;;0.97;84.88;101384.31;4270343;33;34335;-77
2021/12/18 07:44:18;;;;;;;15.95;5.65;;;;;;;0.70;85.77;101389.66;4271602;33;35182;-77
2021/12/18 07:47:07;;;;;;;13.88;5.53;;;;;;;0.69;85.72;101397.97;4271437;33;34003;-78
2021/12/18 07:49:57;;;;;;;9.75;4.82;;;;;;;0.83;85.77;101407.75;4272466;33;34153;-78
2021/12/18 07:52:44;;;;;;;12.82;4.65;;;;;;;0.96;84.97;101409.63;4272106;33;36086;-79
2021/12/18 07:55:30;;;;;;;10.40;5.00;;;;;;;1.22;83.86;101414.25;4280622;33;34666;-79
2021/12/18 07:58:16;;;;;;;10.55;4.25;;;;;;;1.16;84.02;101415.09;4271696;33;34142;-78
2021/12/18 08:01:04;;;;;;;9.80;4.85;;;;;;;1.24;83.82;101420.28;4270712;33;35619;-78
2021/12/18 08:03:50;;;;;;;20.15;6.20;;;;;;;1.21;83.72;101424.22;4271916;33;35034;-78
2021/12/18 08:06:36;;;;;;;12.85;5.90;;;;;;;1.48;82.75;101421.53;4281260;33;35402;-77
2021/12/18 08:09:23;;;;;;;19.45;6.20;;;;;;;1.37;82.73;101422.16;4271871;33;35415;-79
2021/12/18 08:12:09;;;;;;;14.43;6.30;;;;;;;1.47;82.68;101403.69;4271417;33;35171;-80
2021/12/18 08:14:56;;;;;;;13.18;4.95;;;;;;;1.26;83.69;101394.75;4271943;33;34983;-79
2021/12/18 08:18:41;;;;;;;12.63;5.70;;;;;;;1.89;81.44;101405.12;4506113;31;100160;-81
2021/12/18 08:21:28;;;;;;;14.00;5.60;;;;;;;1.89;81.44;101405.12;4494891;32;33970;-80
2021/12/18 08:24:14;;;;;;;11.55;6.05;;;;;;;1.53;82.47;101410.94;4488645;31;34603;-80
2021/12/18 08:27:00;;;;;;;13.40;5.37;;;;;;;1.63;81.61;101416.78;4492384;31;35137;-79
2021/12/18 08:29:47;;;;;;;11.98;5.65;;;;;;;1.85;80.81;101411.12;4493613;31;35328;-79
2021/12/18 08:32:33;;;;;;;13.35;5.95;;;;;;;1.61;81.54;101404.53;4489307;31;34974;-81
2021/12/18 08:35:25;;;;;;;12.50;5.30;;;;;;;1.69;81.43;101405.12;4488419;32;35340;-79
2021/12/18 08:38:12;;;;;;;14.30;6.32;;;;;;;2.07;79.35;101412.56;4492096;32;35921;-79
2021/12/18 08:41:01;;;;;;;12.48;5.70;;;;;;;1.79;80.29;101412.81;4484182;32;35220;-79
2021/12/18 08:43:49;;;;;;;14.05;5.97;;;;;;;1.72;80.57;101414.69;4489493;32;34167;-81
2021/12/18 08:46:35;;;;;;;16.27;5.32;;;;;;;2.04;80.46;101413.00;4494418;32;34571;-79
2021/12/18 08:49:23;;;;;;;13.70;5.97;;;;;;;1.96;79.75;101405.94;4487098;31;35987;-79
2021/12/18 08:52:10;;;;;;;13.52;5.37;;;;;;;2.35;78.39;101408.75;4483318;32;35415;-79
2021/12/18 08:55:02;;;;;;;13.52;4.90;;;;;;;2.38;77.66;101414.56;4486847;31;34145;-80
2021/12/18 08:57:49;;;;;;;11.23;6.10;;;;;;;2.23;78.07;101404.00;4481567;32;35252;-79
2021/12/18 09:00:36;;;;;;;12.02;4.72;;;;;;;2.13;78.60;101406.31;4490345;31;35584;-80
2021/12/18 09:03:25;;;;;;;15.65;5.60;;;;;;;2.20;78.57;101404.44;4466074;32;34366;-80
2021/12/18 09:06:11;;;;;;;15.30;6.50;;;;;;;2.35;78.10;101408.75;4490910;31;35159;-81
2021/12/18 09:08:58;;;;;;;17.37;6.15;;;;;;;2.38;77.60;101419.97;4481000;32;34238;-81
2021/12/18 09:11:44;;;;;;;15.88;6.40;;;;;;;2.38;76.67;101408.31;4478934;32;34968;-80
2021/12/18 09:14:31;;;;;;;12.30;5.82;;;;;;;2.14;77.33;101407.97;4487980;32;34567;-82
2021/12/18 09:17:17;;;;;;;12.18;6.43;;;;;;;2.24;77.21;101405.66;4490668;31;33919;-78
2021/12/18 09:20:05;;;;;;;13.68;5.20;;;;;;;2.32;76.40;101410.00;4489875;32;36004;-80
2021/12/18 09:22:52;;;;;;;13.38;4.15;;;;;;;2.60;75.08;101406.16;4491144;31;35068;-78
2021/12/18 09:25:38;;;;;;;13.02;5.07;;;;;;;2.68;75.23;101398.63;4491888;31;34289;-80
2021/12/18 09:28:25;;;;;;;11.20;4.57;;;;;;;2.77;74.45;101387.56;4488377;32;33241;-80
2021/12/18 09:31:11;;;;;;;11.55;4.78;;;;;;;3.48;72.32;101389.97;4474992;32;34226;-79
2021/12/18 09:33:58;;;;;;;12.48;4.35;;;;;;;2.90;73.87;101392.87;4470803;32;34917;-75
2021/12/18 09:36:44;;;;;;;11.15;4.82;;;;;;;3.01;72.43;101394.06;4482075;32;35426;-78
2021/12/18 09:39:31;;;;;;;10.25;4.22;;;;;;;2.97;73.21;101390.97;4480080;32;34203;-78
2021/12/18 09:42:18;;;;;;;9.10;4.47;;;;;;;3.23;71.66;101397.25;4469867;32;36049;-76
2021/12/18 09:45:07;;;;;;;8.35;4.00;;;;;;;2.87;72.46;101393.31;4480504;32;34671;-78
2021/12/18 09:47:55;;;;;;;10.90;4.70;;;;;;;2.86;72.49;101402.50;4481672;32;34965;-77
2021/12/18 09:50:43;;;;;;;9.25;4.40;;;;;;;3.13;71.38;101400.44;4474522;32;34215;-75
2021/12/18 09:53:30;;;;;;;8.55;3.92;;;;;;;3.05;70.74;101393.44;4479632;32;34753;-75
2021/12/18 09:56:16;;;;;;;9.68;4.28;;;;;;;3.06;70.42;101388.84;4462073;32;34721;-76
2021/12/18 09:59:02;;;;;;;10.57;4.53;;;;;;;2.90;71.32;101390.16;4481662;32;34576;-80
2021/12/18 10:01:49;;;;;;;8.27;4.10;;;;;;;3.05;71.23;101379.87;4480258;32;35109;-82
2021/12/18 10:04:37;;;;;;;7.22;3.05;;;;;;;3.20;70.53;101384.97;4479577;32;34744;-81
2021/12/18 10:07:26;;;;;;;10.30;4.62;;;;;;;3.17;70.27;101384.59;4474887;32;35483;-80
2021/12/18 10:10:16;;;;;;;7.68;3.47;;;;;;;3.27;69.87;101385.78;4479789;32;34297;-83
2021/12/18 10:13:06;;;;;;;11.88;4.25;;;;;;;3.25;69.36;101373.50;4481580;32;34782;-81
2021/12/18 10:16:09;;;;;;;8.95;3.33;;;;;;;3.47;69.72;101380.22;4479452;32;35701;-78
2021/12/18 10:18:57;;;;;;;8.85;3.33;;;;;;;3.79;68.18;101378.25;4480925;32;35906;-80
2021/12/18 10:21:54;;;;;;;9.20;3.85;;;;;;;3.58;68.57;101365.91;4472112;31;35312;-79
2021/12/18 10:24:44;;;;;;;12.10;4.07;;;;;;;3.67;68.16;101369.19;4478708;32;34287;-79
2021/12/18 10:27:30;;;;;;;7.68;3.58;;;;;;;3.51;68.29;101364.31;4476340;32;34256;-81
2021/12/18 10:30:20;;;;;;;9.82;3.33;;;;;;;3.63;67.50;101361.72;4481112;32;35923;-82
2021/12/18 10:33:08;;;;;;;7.35;3.10;;;;;;;3.83;66.79;101379.44;4481998;32;35519;-78
2021/12/18 10:35:58;;;;;;;5.78;2.83;;;;;;;3.64;67.99;101364.19;4481980;32;34168;-77
2021/12/18 10:38:52;;;;;;;9.27;3.28;;;;;;;3.85;67.07;101357.53;4472604;32;34533;-77
2021/12/18 10:41:38;;;;;;;7.70;2.72;;;;;;;3.82;66.40;101350.66;4477888;32;35134;-78
2021/12/18 10:44:24;;;;;;;6.75;3.05;;;;;;;4.06;65.26;101346.22;4479024;32;34498;-77
2021/12/18 10:47:13;;;;;;;6.43;2.97;;;;;;;3.97;65.07;101347.59;4478563;32;34080;-78
2021/12/18 10:50:00;;;;;;;7.37;2.58;;;;;;;4.04;65.00;101342.94;4469651;32;34576;-78
2021/12/18 10:53:12;;;;;;;6.35;2.83;;;;;;;4.07;64.52;101325.37;4476897;32;35953;-78
2021/12/18 10:56:00;;;;;;;13.68;4.72;;;;;;;4.05;63.88;101317.47;4482414;32;35111;-78
2021/12/18 10:58:48;;;;;;;12.43;3.97;;;;;;;4.26;63.67;101345.16;4482774;32;34188;-78
2021/12/18 11:01:36;;;;;;;9.57;2.60;;;;;;;4.42;63.39;101306.56;4481999;32;34294;-79
2021/12/18 11:04:44;;;;;;;8.85;3.50;;;;;;;4.15;63.66;101316.91;4483367;32;34920;-77
2021/12/18 11:07:41;;;;;;;7.20;3.12;;;;;;;3.95;63.74;101317.16;4482445;32;33093;-79
2021/12/18 11:13:40;;;;;;;6.22;2.60;;;;;;;4.26;62.89;101297.16;4471733;32;34587;-77
2021/12/18 11:16:28;;;;;;;9.05;3.25;;;;;;;4.03;63.03;101288.91;4479771;32;34576;-80
2021/12/18 11:19:18;;;;;;;6.93;2.45;;;;;;;3.90;64.00;101289.03;4467614;32;34591;-78
2021/12/18 11:22:08;;;;;;;6.05;3.00;;;;;;;4.15;62.99;101269.97;4470993;32;34106;-76
2021/12/18 11:25:01;;;;;;;8.43;2.50;;;;;;;4.23;62.42;101264.22;4474548;32;34134;-78
2021/12/18 11:27:48;;;;;;;6.07;2.80;;;;;;;4.10;62.80;101269.81;4466755;32;35699;-76
2021/12/18 11:30:35;;;;;;;11.02;2.60;;;;;;;4.41;62.23;101250.63;4468953;32;35579;-77
2021/12/18 11:33:21;;;;;;;6.85;2.40;;;;;;;4.39;62.13;101246.50;4472895;32;34070;-78
2021/12/18 11:36:09;;;;;;;7.15;2.33;;;;;;;4.34;61.97;101263.44;4473399;32;35620;-78
2021/12/18 11:38:55;;;;;;;6.50;2.00;;;;;;;4.25;62.49;101251.28;4476127;32;35958;-78
2021/12/18 11:41:49;;;;;;;5.82;2.20;;;;;;;4.22;61.77;101240.87;4476857;32;34600;-78
2021/12/18 11:44:52;;;;;;;7.47;2.53;;;;;;;4.09;62.69;101227.47;4472301;32;34148;-79
2021/12/18 11:47:46;;;;;;;5.68;2.95;;;;;;;3.96;63.33;101248.31;4472170;32;34285;-82
2021/12/18 11:50:36;;;;;;;10.50;3.58;;;;;;;3.95;62.90;101241.22;4465597;31;35274;-80
2021/12/18 11:53:32;;;;;;;10.57;3.40;;;;;;;3.96;63.43;101236.63;4481765;32;35417;-78
2021/12/18 11:56:18;;;;;;;8.30;3.80;;;;;;;4.22;63.26;101240.87;4470323;32;34154;-77
2021/12/18 11:59:05;;;;;;;10.60;3.83;;;;;;;3.88;63.80;101240.47;4479980;31;35620;-77
2021/12/18 12:01:51;;;;;;;8.25;3.12;;;;;;;3.87;63.91;101238.84;4461218;31;34968;-77
2021/12/18 12:05:04;;;;;;;7.57;2.60;;;;;;;3.92;64.42;101243.56;4472152;32;34400;-78
2021/12/18 12:08:21;;;;;;;11.02;4.22;;;;;;;3.95;63.58;101235.78;4479463;31;35258;-79
2021/12/18 12:11:18;;;;;;;7.50;2.72;;;;;;;3.91;63.98;101234.59;4479242;32;35650;-79
2021/12/18 12:14:14;;;;;;;9.38;3.50;;;;;;;3.93;64.26;101226.25;4471154;32;34980;-78
2021/12/18 12:17:10;;;;;;;8.10;3.15;;;;;;;4.47;63.19;101219.84;4471690;32;35401;-75
2021/12/18 12:19:59;;;;;;;7.87;2.85;;;;;;;4.19;63.92;101219.63;4479641;31;32872;-75
2021/12/18 12:22:53;;;;;;;8.27;3.20;;;;;;;4.43;63.17;101232.22;4479650;31;34595;-79
2021/12/18 12:25:42;;;;;;;8.23;3.55;;;;;;;4.36;63.42;101230.66;4470377;32;35436;-78
2021/12/18 12:28:29;;;;;;;6.97;3.60;;;;;;;4.11;64.10;101234.34;4470141;31;34191;-77
2021/12/18 12:31:15;;;;;;;8.52;3.00;;;;;;;4.00;63.63;101230.50;4459076;31;35150;-79
2021/12/18 12:34:31;;;;;;;6.55;3.05;;;;;;;3.97;63.26;101225.53;4479527;31;35256;-78
2021/12/18 12:37:23;;;;;;;6.35;3.10;;;;;;;4.17;63.11;101238.03;4479408;32;34480;-77
2021/12/18 12:40:12;;;;;;;6.75;3.15;;;;;;;3.95;63.43;101233.06;4478457;32;35461;-78
2021/12/18 12:43:22;;;;;;;8.23;3.50;;;;;;;4.03;63.24;101230.03;4470233;32;34115;-79
2021/12/18 12:46:16;;;;;;;7.78;2.97;;;;;;;3.89;63.82;101236.69;4471736;32;34157;-80
2021/12/18 12:49:07;;;;;;;8.50;2.70;;;;;;;4.14;63.46;101238.47;4472387;31;35947;-79
2021/12/18 12:51:56;;;;;;;5.85;2.75;;;;;;;4.09;63.23;101227.47;4472241;32;34552;-80
2021/12/18 12:54:55;;;;;;;12.65;3.90;;;;;;;4.44;62.37;101227.59;4477722;32;34170;-78
2021/12/18 12:58:01;;;;;;;7.68;3.05;;;;;;;3.97;63.01;101224.72;4477958;32;34665;-80
2021/12/18 13:00:59;;;;;;;7.28;3.47;;;;;;;3.87;63.38;101227.13;4477271;32;33886;-76
2021/12/18 13:03:48;;;;;;;7.65;3.67;;;;;;;3.91;63.15;101229.16;4469761;31;35176;-77
2021/12/18 13:06:35;;;;;;;9.20;3.28;;;;;;;3.93;62.77;101235.19;4471357;31;34038;-78
2021/12/18 13:09:21;;;;;;;6.15;2.90;;;;;;;4.36;61.83;101231.50;4466628;31;35568;-77
2021/12/18 13:12:08;;;;;;;7.75;3.40;;;;;;;3.86;62.97;101248.00;4477774;31;34938;-78
2021/12/18 13:14:55;;;;;;;8.38;3.72;;;;;;;3.91;62.46;101240.03;4473149;32;35484;-78
2021/12/18 13:17:42;;;;;;;11.23;3.47;;;;;;;3.70;63.08;101222.34;4465062;31;33617;-78
2021/12/18 13:20:29;;;;;;;11.50;3.22;;;;;;;3.75;63.30;101211.62;4476634;31;35448;-78
2021/12/18 13:23:18;;;;;;;9.55;3.50;;;;;;;4.02;62.99;101208.59;4479143;31;35868;-82
2021/12/18 13:26:07;;;;;;;10.02;3.53;;;;;;;4.19;62.34;101198.75;4469583;31;35372;-77
2021/12/18 13:29:09;;;;;;;7.10;3.53;;;;;;;3.70;63.87;101216.06;4479972;31;33952;-77
2021/12/18 13:31:58;;;;;;;9.07;3.25;;;;;;;3.70;63.92;101218.78;4479494;32;34720;-76
2021/12/18 13:34:44;;;;;;;10.32;3.92;;;;;;;3.81;63.41;101221.59;4472567;31;35637;-77
2021/12/18 13:37:31;;;;;;;18.40;7.95;;;;;;;3.74;63.82;101222.72;4469222;31;34330;-77
2021/12/18 13:40:19;;;;;;;9.65;4.25;;;;;;;3.47;65.03;101222.16;4478810;31;33066;-78
2021/12/18 13:43:07;;;;;;;12.50;4.65;;;;;;;3.67;64.64;101217.38;4478867;32;34702;-79
2021/12/18 13:46:07;;;;;;;11.32;6.50;;;;;;;3.29;66.64;101204.03;4481065;32;34994;-77
2021/12/18 13:48:54;;;;;;;7.82;4.22;;;;;;;3.53;66.94;101210.44;4470754;32;35023;-79